Time;durP1;ratioP1;P1;durP2;ratioP2;P2;SDS_P1;SDS_P2;PMS_P1;PMS_P2;Temp;Humidity;BMP_temperature;BMP_pressure;BME280_temperature;BME280_humidity;BME280_pressure;Samples;Min_cycle;Max_cycle;Signal;HPM_P1;HPM_P2
2021/06/28 00:01:12;;;;;;;4.33;3.90;;;21.50;99.90;;;;;;10497508;28;20239;-80
2021/06/28 00:06:19;;;;;;;5.33;5.03;;;21.20;99.90;;;;;;10496458;28;20224;-81
2021/06/28 00:11:48;;;;;;;;;;;;;;;;;;;;;
2021/06/28 00:17:06;;;;;;;5.40;5.10;;;20.70;99.90;;;;;;10469797;28;20232;-81
2021/06/28 00:22:17;;;;;;;4.90;4.70;;;20.40;99.90;;;;;;10500467;28;20572;-81
2021/06/28 00:27:22;;;;;;;5.03;4.73;;;20.10;99.90;;;;;;10495995;28;20212;-82
2021/06/28 00:32:25;;;;;;;4.30;4.00;;;19.90;99.90;;;;;;10493036;28;20230;-81
2021/06/28 00:37:28;;;;;;;4.03;3.83;;;19.80;99.90;;;;;;10532382;28;20220;-82
2021/06/28 00:42:30;;;;;;;4.60;4.20;;;19.80;99.90;;;;;;10490640;28;20203;-82
2021/06/28 00:47:32;;;;;;;5.00;4.60;;;20.00;99.90;;;;;;10495299;28;20227;-82
2021/06/28 00:52:36;;;;;;;4.10;3.90;;;20.10;99.90;;;;;;10513158;28;20199;-82
2021/06/28 00:57:39;;;;;;;4.27;3.80;;;20.30;99.90;;;;;;10505602;28;20232;-81
2021/06/28 01:02:41;;;;;;;3.90;3.70;;;20.40;99.90;;;;;;10475725;28;20236;-81
2021/06/28 01:07:46;;;;;;;3.63;3.43;;;20.50;99.90;;;;;;10498539;28;20242;-81
2021/06/28 01:12:50;;;;;;;3.60;3.30;;;20.60;99.90;;;;;;10524724;28;20195;-81
2021/06/28 01:17:52;;;;;;;3.50;3.30;;;20.70;99.90;;;;;;10528195;28;20235;-81
2021/06/28 01:22:58;;;;;;;2.83;2.73;;;20.80;99.90;;;;;;10550104;28;20200;-81
2021/06/28 01:28:01;;;;;;;3.20;2.90;;;20.90;99.90;;;;;;10528549;28;20726;-81
2021/06/28 01:33:04;;;;;;;2.83;2.73;;;21.00;99.90;;;;;;10523888;28;20651;-81
2021/06/28 01:38:06;;;;;;;2.83;2.63;;;21.00;99.90;;;;;;10471491;28;20290;-81
2021/06/28 01:43:10;;;;;;;3.43;3.23;;;21.10;99.90;;;;;;10484348;28;20205;-81
2021/06/28 01:48:12;;;;;;;3.20;3.00;;;21.20;99.90;;;;;;10498006;28;20247;-82
2021/06/28 01:53:15;;;;;;;3.60;3.40;;;21.30;99.90;;;;;;10518198;28;20215;-80
2021/06/28 01:58:18;;;;;;;3.40;3.20;;;21.30;99.90;;;;;;10495177;28;20239;-81
2021/06/28 02:03:22;;;;;;;3.83;3.53;;;21.40;99.90;;;;;;10513385;28;20722;-83
2021/06/28 02:08:27;;;;;;;3.60;3.40;;;21.40;99.90;;;;;;10544862;28;20204;-83
2021/06/28 02:13:33;;;;;;;3.60;3.40;;;21.40;99.90;;;;;;10487786;28;20201;-81
2021/06/28 02:18:35;;;;;;;3.50;3.30;;;21.40;99.90;;;;;;10495166;28;20228;-82
2021/06/28 02:23:39;;;;;;;3.30;3.10;;;21.50;99.90;;;;;;10518602;28;20204;-82
2021/06/28 02:28:45;;;;;;;3.90;3.60;;;21.50;99.90;;;;;;10493355;28;20205;-82
2021/06/28 02:33:48;;;;;;;3.80;3.50;;;21.50;99.90;;;;;;10500800;28;20232;-82
2021/06/28 02:38:51;;;;;;;3.57;3.37;;;21.50;99.90;;;;;;10488382;28;20213;-81
2021/06/28 02:43:56;;;;;;;3.47;3.27;;;21.40;99.90;;;;;;10482071;28;20723;-81
2021/06/28 02:48:58;;;;;;;3.80;3.53;;;21.40;99.90;;;;;;10499513;28;20201;-81
2021/06/28 02:54:00;;;;;;;4.10;3.80;;;21.40;99.90;;;;;;10498608;28;20275;-81
2021/06/28 02:59:04;;;;;;;4.00;3.80;;;21.50;99.90;;;;;;10498895;28;20266;-81
2021/06/28 03:04:06;;;;;;;3.70;3.40;;;21.50;99.90;;;;;;10472983;28;20232;-81
2021/06/28 03:09:08;;;;;;;3.40;3.20;;;21.50;99.90;;;;;;10497685;28;20197;-81
2021/06/28 03:14:11;;;;;;;4.97;3.60;;;21.50;99.90;;;;;;10510973;28;20315;-84
2021/06/28 03:19:14;;;;;;;3.73;3.40;;;21.50;99.90;;;;;;10479417;28;20220;-81
2021/06/28 03:24:16;;;;;;;3.73;3.43;;;21.50;99.90;;;;;;10480078;28;20228;-83
2021/06/28 03:29:19;;;;;;;3.30;3.10;;;21.50;99.90;;;;;;10515016;28;20227;-82
2021/06/28 03:34:21;;;;;;;3.70;3.50;;;21.40;99.90;;;;;;10511495;28;20719;-82
2021/06/28 03:39:23;;;;;;;3.87;3.57;;;21.30;99.90;;;;;;10461331;28;20240;-82
2021/06/28 03:44:27;;;;;;;4.80;3.50;;;21.10;99.90;;;;;;10504895;28;20220;-82
2021/06/28 03:49:29;;;;;;;3.63;3.43;;;21.10;99.90;;;;;;10505838;28;20224;-82
2021/06/28 03:54:31;;;;;;;4.20;3.80;;;21.10;99.90;;;;;;10472630;28;20230;-82
2021/06/28 03:59:35;;;;;;;3.73;3.43;;;21.10;99.90;;;;;;10521277;28;20220;-82
2021/06/28 04:04:37;;;;;;;4.33;3.90;;;21.10;99.90;;;;;;10535947;28;20219;-83
2021/06/28 04:09:39;;;;;;;3.60;3.30;;;21.10;99.90;;;;;;10492309;28;20679;-83
2021/06/28 04:14:42;;;;;;;3.40;3.20;;;21.20;99.90;;;;;;10503841;28;20255;-82
2021/06/28 04:19:44;;;;;;;3.70;3.40;;;21.20;99.90;;;;;;10489251;28;20247;-82
2021/06/28 04:24:47;;;;;;;3.23;2.70;;;21.20;99.90;;;;;;10527137;28;20298;-82
2021/06/28 04:29:53;;;;;;;3.60;3.40;;;21.30;99.90;;;;;;10510224;28;20583;-83
2021/06/28 04:34:57;;;;;;;3.70;3.50;;;21.30;99.90;;;;;;10481751;28;20311;-83
2021/06/28 04:39:59;;;;;;;3.40;3.10;;;21.40;99.90;;;;;;10495122;28;20223;-82
2021/06/28 04:45:04;;;;;;;4.80;3.70;;;21.40;99.90;;;;;;10491529;28;20228;-82
2021/06/28 04:50:08;;;;;;;4.63;3.23;;;21.40;99.90;;;;;;10519029;28;20196;-82
2021/06/28 04:55:13;;;;;;;3.50;3.20;;;21.40;99.90;;;;;;10498462;28;20258;-82
2021/06/28 05:00:21;;;;;;;3.60;3.40;;;21.30;99.90;;;;;;10474174;28;20255;-82
2021/06/28 05:05:23;;;;;;;3.43;3.20;;;21.30;99.90;;;;;;10517625;28;20227;-83
2021/06/28 05:10:25;;;;;;;3.50;3.20;;;21.30;99.90;;;;;;10524395;28;20197;-83
2021/06/28 05:15:29;;;;;;;5.00;3.07;;;21.30;99.90;;;;;;10533028;22;20304;-80
2021/06/28 05:20:31;;;;;;;3.60;3.40;;;21.30;99.90;;;;;;10575325;28;20227;-81
2021/06/28 05:25:33;;;;;;;3.87;3.57;;;21.20;99.90;;;;;;10581367;28;20264;-81
2021/06/28 05:30:36;;;;;;;4.03;3.80;;;21.20;99.90;;;;;;10562886;28;20200;-80
2021/06/28 05:35:39;;;;;;;3.83;3.63;;;21.20;99.90;;;;;;10557539;28;20227;-81
2021/06/28 05:40:41;;;;;;;6.57;4.07;;;21.30;99.90;;;;;;10581547;28;20659;-80
2021/06/28 05:45:44;;;;;;;3.87;3.57;;;21.40;99.90;;;;;;10579266;28;20225;-80
2021/06/28 05:50:46;;;;;;;4.40;4.10;;;21.40;99.90;;;;;;10576848;28;20297;-81
2021/06/28 05:55:50;;;;;;;3.40;3.20;;;21.40;99.90;;;;;;10579746;28;20311;-81
2021/06/28 06:00:54;;;;;;;3.10;2.90;;;21.60;99.90;;;;;;10549886;28;20235;-81
2021/06/28 06:05:57;;;;;;;3.10;2.90;;;21.70;99.90;;;;;;10573251;28;20226;-82
2021/06/28 06:11:00;;;;;;;3.83;3.63;;;21.90;99.90;;;;;;10591763;28;20257;-82
2021/06/28 06:16:04;;;;;;;3.43;3.23;;;22.00;99.90;;;;;;10573041;28;20284;-82
2021/06/28 06:21:07;;;;;;;4.03;3.83;;;22.10;99.90;;;;;;10575730;28;20222;-82
2021/06/28 06:26:09;;;;;;;3.97;3.67;;;22.20;99.90;;;;;;10591569;28;20223;-82
2021/06/28 06:31:13;;;;;;;3.50;3.30;;;22.30;99.90;;;;;;10573593;28;20207;-82
2021/06/28 06:36:15;;;;;;;3.37;3.17;;;22.50;99.90;;;;;;10574956;28;20257;-82
2021/06/28 06:41:17;;;;;;;3.60;3.40;;;22.60;99.90;;;;;;10574415;28;20301;-81
2021/06/28 06:46:21;;;;;;;3.83;3.53;;;22.80;99.90;;;;;;10570323;28;20223;-82
2021/06/28 06:51:23;;;;;;;3.50;3.10;;;23.10;99.90;;;;;;10556550;28;20225;-82
2021/06/28 06:56:25;;;;;;;3.57;3.30;;;23.50;99.90;;;;;;10590702;28;20219;-81
2021/06/28 07:01:29;;;;;;;3.80;3.60;;;23.70;99.90;;;;;;10590936;28;20226;-82
2021/06/28 07:06:32;;;;;;;3.40;3.17;;;23.90;99.90;;;;;;10592655;28;20234;-81
2021/06/28 07:11:34;;;;;;;3.57;3.37;;;24.00;99.90;;;;;;10588121;28;20210;-82
2021/06/28 07:16:37;;;;;;;3.33;3.13;;;24.30;99.90;;;;;;10570571;28;20231;-83
2021/06/28 07:21:40;;;;;;;3.20;3.00;;;24.60;99.90;;;;;;10591628;28;20285;-82
2021/06/28 07:26:42;;;;;;;3.07;2.87;;;25.00;99.90;;;;;;10590738;28;20249;-82
2021/06/28 07:31:45;;;;;;;3.23;3.03;;;25.40;99.90;;;;;;10573171;28;20199;-82
2021/06/28 07:36:47;;;;;;;2.90;2.70;;;25.80;99.90;;;;;;10572879;28;20237;-83
2021/06/28 07:41:50;;;;;;;3.33;3.13;;;26.20;99.90;;;;;;10573181;28;20231;-82
2021/06/28 07:46:54;;;;;;;3.20;2.90;;;26.70;99.90;;;;;;10571661;28;20261;-82
2021/06/28 07:51:56;;;;;;;4.63;3.20;;;27.20;99.90;;;;;;10571925;28;20244;-82
2021/06/28 07:56:58;;;;;;;2.97;2.80;;;27.70;99.90;;;;;;10572573;28;20219;-80
2021/06/28 08:02:02;;;;;;;3.23;2.97;;;28.10;98.50;;;;;;10589544;28;20698;-80
2021/06/28 08:07:05;;;;;;;3.50;2.87;;;28.60;99.10;;;;;;10591331;28;20218;-81
2021/06/28 08:12:07;;;;;;;3.17;2.97;;;29.10;98.80;;;;;;10572135;28;20195;-79
2021/06/28 08:17:11;;;;;;;3.37;3.07;;;29.50;94.80;;;;;;10554656;28;20321;-80
2021/06/28 08:22:14;;;;;;;2.60;2.50;;;29.90;94.60;;;;;;10589895;28;20278;-80
2021/06/28 08:27:16;;;;;;;3.37;3.17;;;30.20;92.40;;;;;;10569983;28;20226;-81
2021/06/28 08:32:19;;;;;;;2.77;2.60;;;30.30;91.50;;;;;;10572293;28;20210;-81
2021/06/28 08:37:22;;;;;;;2.70;2.60;;;30.50;89.20;;;;;;10585596;28;20215;-80
2021/06/28 08:42:24;;;;;;;2.93;2.73;;;30.80;88.40;;;;;;10579606;28;20310;-80
2021/06/28 08:47:28;;;;;;;3.03;2.93;;;31.00;84.20;;;;;;10569164;28;20227;-79
2021/06/28 08:52:36;;;;;;;3.37;3.20;;;31.20;84.80;;;;;;10583023;28;20203;-81
2021/06/28 08:57:38;;;;;;;3.07;2.87;;;31.40;81.60;;;;;;10570176;28;20227;-81
2021/06/28 09:02:44;;;;;;;3.20;3.00;;;31.40;80.10;;;;;;10588946;28;20215;-78
2021/06/28 09:07:50;;;;;;;3.53;3.33;;;31.60;80.80;;;;;;10564776;28;20273;-81
2021/06/28 09:12:53;;;;;;;3.60;3.30;;;31.70;75.40;;;;;;10563632;28;20191;-81
2021/06/28 09:17:56;;;;;;;3.43;3.23;;;32.10;79.20;;;;;;10554800;28;20255;-81
2021/06/28 09:22:58;;;;;;;3.60;3.40;;;32.50;77.20;;;;;;10538358;28;20227;-81
2021/06/28 09:28:02;;;;;;;3.17;3.07;;;32.80;73.50;;;;;;10536589;28;20227;-81
2021/06/28 09:33:05;;;;;;;3.33;3.10;;;33.40;73.80;;;;;;10553686;28;20627;-81
2021/06/28 09:38:09;;;;;;;3.20;2.90;;;33.70;68.10;;;;;;10553298;28;20280;-81
2021/06/28 09:43:22;;;;;;;3.37;3.27;;;34.00;68.50;;;;;;10544105;28;20236;-81
2021/06/28 09:48:27;;;;;;;3.60;3.40;;;34.40;65.40;;;;;;10545694;28;20246;-81
2021/06/28 09:53:29;;;;;;;3.60;3.40;;;35.20;62.60;;;;;;10540017;28;20278;-82
2021/06/28 09:58:31;;;;;;;2.47;2.20;;;36.60;57.90;;;;;;10547567;28;20740;-81
2021/06/28 10:03:39;;;;;;;3.20;3.10;;;38.50;56.30;;;;;;10538494;28;20250;-81
2021/06/28 10:08:44;;;;;;;2.60;2.50;;;40.20;52.30;;;;;;10564739;28;20257;-80
2021/06/28 10:13:53;;;;;;;2.97;2.78;;;41.00;49.70;;;;;;10557912;28;20198;-80
2021/06/28 10:18:58;;;;;;;3.88;2.90;;;41.60;48.30;;;;;;10581807;28;20195;-80
2021/06/28 10:24:00;;;;;;;2.97;2.78;;;42.40;44.70;;;;;;10565709;28;20222;-80
2021/06/28 10:29:03;;;;;;;2.90;2.70;;;42.20;44.00;;;;;;10562096;28;20211;-80
2021/06/28 10:34:06;;;;;;;3.23;2.93;;;39.90;42.90;;;;;;10584058;28;20222;-80
2021/06/28 10:39:10;;;;;;;2.63;2.53;;;37.60;47.20;;;;;;10565325;28;20582;-79
2021/06/28 10:44:14;;;;;;;3.07;2.97;;;35.80;47.70;;;;;;10582603;28;20272;-79
2021/06/28 10:49:45;;;;;;;3.50;3.10;;;34.30;52.20;;;;;;10542525;28;20200;-79
2021/06/28 10:54:47;;;;;;;2.80;2.60;;;33.20;52.40;;;;;;10558803;28;20701;-79
2021/06/28 11:00:01;;;;;;;3.00;2.90;;;32.20;54.30;;;;;;10562613;28;20216;-80
2021/06/28 11:05:22;;;;;;;3.10;2.90;;;31.60;54.90;;;;;;10553851;28;20215;-79
2021/06/28 11:10:38;;;;;;;3.30;3.00;;;30.90;55.30;;;;;;10533828;28;20257;-79
2021/06/28 11:15:41;;;;;;;3.20;3.00;;;30.40;58.60;;;;;;10537491;22;20290;-81
2021/06/28 11:20:53;;;;;;;3.30;3.20;;;30.10;61.60;;;;;;10450617;28;20221;-81
2021/06/28 11:25:57;;;;;;;3.43;3.27;;;29.90;62.10;;;;;;10419507;28;20255;-81
2021/06/28 11:31:02;;;;;;;3.37;3.27;;;29.80;61.80;;;;;;10446257;28;20231;-83
2021/06/28 11:36:27;;;;;;;3.70;3.50;;;29.90;60.60;;;;;;10424302;28;20233;-80
2021/06/28 11:41:31;;;;;;;3.20;3.00;;;29.90;64.30;;;;;;10454490;28;20257;-80
2021/06/28 11:46:48;;;;;;;3.40;3.10;;;29.80;66.10;;;;;;10456625;28;20229;-83
2021/06/28 11:51:52;;;;;;;3.40;3.20;;;29.70;63.80;;;;;;10441632;28;20266;-84
2021/06/28 11:57:01;;;;;;;3.23;2.93;;;29.50;66.30;;;;;;10447455;28;20221;-79
2021/06/28 12:02:04;;;;;;;3.40;3.20;;;29.40;64.50;;;;;;10420837;28;20218;-80
2021/06/28 12:07:26;;;;;;;3.53;3.23;;;29.40;64.60;;;;;;10439484;28;20233;-81
2021/06/28 12:12:29;;;;;;;3.43;3.23;;;29.50;65.90;;;;;;10456230;28;20703;-80
2021/06/28 12:17:33;;;;;;;2.90;2.80;;;29.60;64.80;;;;;;10456253;28;20241;-81
2021/06/28 12:22:38;;;;;;;2.73;2.53;;;29.70;68.00;;;;;;10422007;28;20256;-80
2021/06/28 12:27:47;;;;;;;3.77;3.57;;;29.70;67.10;;;;;;10415869;28;20257;-79
2021/06/28 12:32:50;;;;;;;3.43;3.23;;;29.70;63.10;;;;;;10420545;28;20213;-79
2021/06/28 12:37:55;;;;;;;3.50;3.30;;;29.50;65.50;;;;;;10419732;28;20747;-81
2021/06/28 12:43:01;;;;;;;6.90;3.40;;;29.30;66.70;;;;;;10425951;28;20253;-80
2021/06/28 12:48:06;;;;;;;3.50;3.27;;;29.30;65.50;;;;;;10445067;28;20221;-82
2021/06/28 12:53:17;;;;;;;3.60;3.40;;;29.40;66.00;;;;;;10462742;28;20211;-80
2021/06/28 12:58:20;;;;;;;3.63;3.13;;;29.40;65.80;;;;;;10460413;28;20641;-81
2021/06/28 13:03:29;;;;;;;3.00;2.90;;;29.40;68.20;;;;;;10444968;28;20216;-80
2021/06/28 13:08:37;;;;;;;3.67;3.47;;;29.50;66.90;;;;;;10425947;28;20217;-83
2021/06/28 13:13:53;;;;;;;3.50;3.27;;;29.50;67.50;;;;;;10452101;28;20197;-82
2021/06/28 13:19:01;;;;;;;4.60;4.30;;;29.50;68.00;;;;;;10473602;28;20260;-81
2021/06/28 13:24:16;;;;;;;2.77;2.67;;;29.40;66.80;;;;;;10435807;28;20220;-81
2021/06/28 13:29:28;;;;;;;4.27;3.13;;;29.50;67.40;;;;;;10470943;28;20232;-81
2021/06/28 13:35:25;;;;;;;3.97;3.73;;;29.50;67.60;;;;;;10473405;28;20225;-80
2021/06/28 13:40:29;;;;;;;6.63;3.10;;;29.50;68.60;;;;;;10434877;28;20208;-79
2021/06/28 13:45:40;;;;;;;3.80;3.60;;;29.50;69.40;;;;;;10448934;28;20238;-82
2021/06/28 13:50:44;;;;;;;4.07;3.80;;;29.40;71.30;;;;;;10447551;28;20193;-81
2021/06/28 13:55:50;;;;;;;3.80;3.60;;;29.40;70.00;;;;;;10456215;28;20299;-81
2021/06/28 14:00:54;;;;;;;5.40;3.77;;;29.60;69.10;;;;;;10463385;28;20290;-79
2021/06/28 14:05:56;;;;;;;3.57;3.30;;;29.60;68.30;;;;;;10552245;22;20229;-81
2021/06/28 14:11:00;;;;;;;3.43;3.20;;;29.60;67.60;;;;;;10432606;28;20225;-80
2021/06/28 14:16:02;;;;;;;3.70;3.50;;;29.60;68.00;;;;;;10411738;28;20226;-82
2021/06/28 14:21:04;;;;;;;3.83;3.63;;;29.50;70.00;;;;;;10384116;28;20230;-83
2021/06/28 14:26:08;;;;;;;3.30;3.17;;;29.60;68.40;;;;;;10402141;28;20233;-81
2021/06/28 14:31:10;;;;;;;3.57;3.40;;;29.60;67.90;;;;;;10402803;28;20197;-81
2021/06/28 14:36:13;;;;;;;5.20;4.20;;;29.60;69.00;;;;;;10385332;28;20600;-81
2021/06/28 14:41:17;;;;;;;4.27;3.97;;;29.50;70.30;;;;;;10411877;28;20271;-82
2021/06/28 14:46:20;;;;;;;3.53;3.13;;;29.30;70.30;;;;;;10400375;28;20308;-81
2021/06/28 14:51:22;;;;;;;3.77;3.57;;;29.20;69.70;;;;;;10418194;28;20276;-82
2021/06/28 14:56:25;;;;;;;3.47;3.20;;;29.10;69.60;;;;;;10418308;28;20313;-83
2021/06/28 15:01:27;;;;;;;3.97;3.77;;;28.90;70.60;;;;;;10384217;28;20229;-80
2021/06/28 15:06:31;;;;;;;4.27;3.97;;;28.80;70.30;;;;;;10418688;28;20229;-80
2021/06/28 15:11:44;;;;;;;4.10;3.70;;;28.70;71.90;;;;;;10378308;28;20205;-80
2021/06/28 15:16:46;;;;;;;4.20;3.90;;;28.70;72.50;;;;;;10400968;28;20245;-82
2021/06/28 15:22:10;;;;;;;4.17;3.87;;;28.70;71.20;;;;;;10399362;28;20240;-81
2021/06/28 15:27:13;;;;;;;4.00;3.70;;;28.70;72.40;;;;;;10393566;28;20233;-81
2021/06/28 15:32:16;;;;;;;4.13;3.93;;;28.60;73.30;;;;;;10399445;28;20210;-82
2021/06/28 15:37:18;;;;;;;4.13;3.93;;;28.60;74.40;;;;;;10399686;28;20225;-80
2021/06/28 15:42:21;;;;;;;3.97;3.67;;;28.60;72.10;;;;;;10417885;28;20273;-81
2021/06/28 15:47:23;;;;;;;3.90;3.70;;;28.50;73.70;;;;;;10418080;28;20234;-79
2021/06/28 15:52:27;;;;;;;4.40;4.10;;;28.40;74.20;;;;;;10397822;28;20272;-81
2021/06/28 15:57:32;;;;;;;4.07;3.63;;;28.30;75.90;;;;;;10414802;28;20253;-82
2021/06/28 16:02:34;;;;;;;3.83;3.63;;;28.20;76.40;;;;;;10381922;28;20234;-81
2021/06/28 16:07:37;;;;;;;3.53;3.33;;;28.20;75.50;;;;;;10397958;28;20312;-82
2021/06/28 16:12:43;;;;;;;4.13;3.83;;;28.10;74.60;;;;;;10399498;28;20198;-81
2021/06/28 16:17:46;;;;;;;4.37;4.07;;;28.00;75.70;;;;;;10398550;28;20300;-81
2021/06/28 16:22:50;;;;;;;4.00;3.80;;;27.80;75.50;;;;;;10416237;28;20226;-80
2021/06/28 16:27:54;;;;;;;4.97;3.50;;;27.70;75.60;;;;;;10397802;28;20252;-80
2021/06/28 16:32:57;;;;;;;3.00;2.90;;;27.60;76.80;;;;;;10415333;28;20287;-82
2021/06/28 16:38:00;;;;;;;3.20;3.00;;;27.40;77.10;;;;;;10381751;28;20280;-80
2021/06/28 16:43:08;;;;;;;3.87;3.57;;;27.40;78.20;;;;;;10416143;28;20606;-80
2021/06/28 16:48:10;;;;;;;3.10;2.90;;;27.20;77.80;;;;;;10383277;28;20264;-81
2021/06/28 16:53:12;;;;;;;4.27;3.87;;;27.10;78.60;;;;;;10412903;28;20567;-83
2021/06/28 16:58:17;;;;;;;5.40;4.90;;;27.00;78.10;;;;;;10399837;28;20222;-79
2021/06/28 17:03:19;;;;;;;3.50;3.20;;;26.90;79.60;;;;;;10391926;28;20229;-80
2021/06/28 17:08:22;;;;;;;3.87;3.67;;;26.80;79.10;;;;;;10409676;28;20317;-81
2021/06/28 17:13:27;;;;;;;3.70;3.50;;;26.70;79.70;;;;;;10403889;28;20216;-80
2021/06/28 17:18:29;;;;;;;3.50;3.30;;;26.70;80.40;;;;;;10391317;28;20309;-82
2021/06/28 17:23:32;;;;;;;3.50;3.30;;;26.60;79.50;;;;;;10384463;28;20257;-82
2021/06/28 17:28:35;;;;;;;3.40;3.20;;;26.60;79.70;;;;;;10410988;28;20231;-82
2021/06/28 17:33:38;;;;;;;3.83;3.63;;;26.60;79.50;;;;;;10413399;28;20670;-82
2021/06/28 17:38:40;;;;;;;3.50;3.20;;;26.50;80.40;;;;;;10386457;28;20229;-82
2021/06/28 17:43:46;;;;;;;3.90;3.70;;;26.50;80.30;;;;;;10396456;28;20222;-81
2021/06/28 17:48:48;;;;;;;3.60;3.40;;;26.40;81.90;;;;;;10397395;28;20226;-81
2021/06/28 17:53:52;;;;;;;4.63;4.33;;;26.40;84.50;;;;;;10396617;28;20207;-81
2021/06/28 17:58:57;;;;;;;4.00;3.70;;;26.30;85.50;;;;;;10379415;28;20238;-81
2021/06/28 18:03:59;;;;;;;4.30;3.90;;;26.20;86.50;;;;;;10349740;28;20653;-81
2021/06/28 18:09:04;;;;;;;2.90;2.70;;;26.00;87.80;;;;;;10390541;28;20255;-81
2021/06/28 18:14:08;;;;;;;14.17;9.70;;;25.60;89.60;;;;;;10418257;28;20459;-82
2021/06/28 18:19:16;;;;;;;11.80;10.57;;;24.40;94.10;;;;;;10404681;28;20240;-80
2021/06/28 18:24:23;;;;;;;8.20;7.60;;;22.80;99.90;;;;;;10409394;28;20226;-80
2021/06/28 18:29:26;;;;;;;10.13;8.93;;;20.30;99.90;;;;;;10392306;28;20208;-81
2021/06/28 18:34:29;;;;;;;11.40;10.33;;;18.80;99.90;;;;;;10381913;28;20250;-80
2021/06/28 18:39:31;;;;;;;15.67;14.37;;;18.50;99.90;;;;;;10398363;28;20930;-80
2021/06/28 18:44:34;;;;;;;17.93;16.53;;;18.60;99.90;;;;;;10385096;28;20237;-79
2021/06/28 18:49:37;;;;;;;17.30;15.90;;;18.90;99.90;;;;;;10379468;28;20210;-80
2021/06/28 18:54:39;;;;;;;17.30;15.70;;;19.10;99.90;;;;;;10366666;28;20234;-81
2021/06/28 18:59:43;;;;;;;14.63;13.53;;;19.30;99.90;;;;;;10391291;28;20198;-82
2021/06/28 19:04:45;;;;;;;11.83;11.13;;;19.50;99.90;;;;;;10406431;28;20222;-80
2021/06/28 19:09:47;;;;;;;13.30;12.20;;;19.60;99.90;;;;;;10406418;28;20194;-80
2021/06/28 19:14:50;;;;;;;11.27;10.37;;;19.60;99.90;;;;;;10372359;28;20214;-80
2021/06/28 19:19:53;;;;;;;14.03;12.83;;;19.70;99.90;;;;;;10382560;28;20213;-80
2021/06/28 19:24:55;;;;;;;14.30;13.30;;;19.70;99.90;;;;;;10384592;28;20241;-83
2021/06/28 19:29:58;;;;;;;14.53;13.53;;;19.70;99.90;;;;;;10386196;28;20276;-80
2021/06/28 19:35:01;;;;;;;12.03;10.93;;;19.70;99.90;;;;;;10389403;28;20225;-80
2021/06/28 19:40:05;;;;;;;12.17;11.17;;;19.70;99.90;;;;;;10385445;28;20190;-79
2021/06/28 19:45:11;;;;;;;11.90;10.90;;;19.60;99.90;;;;;;10386761;28;20215;-83
2021/06/28 19:50:14;;;;;;;12.40;11.40;;;19.50;99.90;;;;;;10412714;28;20244;-80
2021/06/28 19:55:16;;;;;;;12.97;11.80;;;19.50;99.90;;;;;;10409978;28;20309;-81
2021/06/28 20:00:21;;;;;;;11.27;10.40;;;19.40;99.90;;;;;;10402838;28;20553;-80
2021/06/28 20:05:23;;;;;;;12.27;11.47;;;19.40;99.90;;;;;;10388744;28;20287;-82
2021/06/28 20:10:26;;;;;;;11.70;10.73;;;19.40;99.90;;;;;;10399221;28;20268;-81
2021/06/28 20:15:30;;;;;;;10.13;9.53;;;19.30;99.90;;;;;;10393195;28;20653;-84
2021/06/28 20:20:32;;;;;;;10.67;9.90;;;19.20;99.90;;;;;;10392724;28;20198;-83
2021/06/28 20:25:34;;;;;;;9.50;8.80;;;19.20;99.90;;;;;;10391663;28;20643;-83
2021/06/28 20:30:39;;;;;;;11.43;10.53;;;19.10;99.90;;;;;;10397489;28;20202;-80
2021/06/28 20:35:41;;;;;;;12.83;11.93;;;19.20;99.90;;;;;;10401317;28;20217;-80
2021/06/28 20:40:44;;;;;;;12.53;11.63;;;19.30;99.90;;;;;;10385056;28;20202;-80
2021/06/28 20:45:49;;;;;;;11.57;10.67;;;19.30;99.90;;;;;;10395034;28;20317;-81
2021/06/28 20:50:51;;;;;;;12.27;11.37;;;19.40;99.90;;;;;;10379688;28;20213;-79
2021/06/28 20:55:54;;;;;;;11.30;10.30;;;19.50;99.90;;;;;;10412981;28;20800;-81
2021/06/28 21:00:59;;;;;;;10.50;9.90;;;19.50;99.90;;;;;;10396011;28;20213;-82
2021/06/28 21:06:02;;;;;;;11.97;11.17;;;19.50;99.90;;;;;;10379680;28;20236;-82
2021/06/28 21:11:04;;;;;;;9.43;8.77;;;19.40;99.90;;;;;;10380093;28;20234;-84
2021/06/28 21:16:10;;;;;;;11.63;10.67;;;19.40;99.90;;;;;;10396264;28;20226;-80
2021/06/28 21:21:14;;;;;;;11.30;10.50;;;19.30;99.90;;;;;;10396861;28;20217;-80
2021/06/28 21:26:16;;;;;;;12.33;11.43;;;19.30;99.90;;;;;;10396727;28;20237;-83
2021/06/28 21:31:20;;;;;;;13.70;12.60;;;19.30;99.90;;;;;;10398289;28;20230;-81
2021/06/28 21:36:26;;;;;;;12.60;11.80;;;19.30;99.90;;;;;;10405895;28;20760;-80
2021/06/28 21:41:29;;;;;;;12.90;11.90;;;19.20;99.90;;;;;;10407910;28;20198;-81
2021/06/28 21:46:35;;;;;;;12.37;11.57;;;19.20;99.90;;;;;;10407317;28;20246;-79
2021/06/28 21:51:37;;;;;;;12.40;11.40;;;19.20;99.90;;;;;;10389079;28;20297;-79
2021/06/28 21:56:39;;;;;;;13.60;12.60;;;19.20;99.90;;;;;;10423612;28;20218;-81
2021/06/28 22:01:42;;;;;;;12.37;11.47;;;19.20;99.90;;;;;;10410806;28;20279;-82
2021/06/28 22:06:46;;;;;;;13.30;12.07;;;19.20;99.90;;;;;;10411366;28;20256;-82
2021/06/28 22:11:49;;;;;;;13.27;12.27;;;19.20;99.90;;;;;;10419382;28;20198;-81
2021/06/28 22:16:53;;;;;;;11.30;10.43;;;19.20;99.90;;;;;;10418512;28;20222;-80
2021/06/28 22:21:55;;;;;;;12.73;11.70;;;19.20;99.90;;;;;;10400218;28;20625;-81
2021/06/28 22:26:57;;;;;;;13.50;12.30;;;19.20;99.90;;;;;;10393719;28;20304;-82
2021/06/28 22:32:01;;;;;;;13.63;12.63;;;19.30;99.90;;;;;;10383385;28;20582;-80
2021/06/28 22:37:03;;;;;;;13.27;12.10;;;19.40;99.90;;;;;;10383159;28;20254;-80
2021/06/28 22:42:06;;;;;;;10.73;10.03;;;19.50;99.90;;;;;;10399919;28;20221;-80
2021/06/28 22:47:10;;;;;;;12.47;11.60;;;19.50;99.90;;;;;;10415847;28;20222;-79
2021/06/28 22:52:12;;;;;;;11.93;11.00;;;19.50;99.90;;;;;;10416916;28;20208;-80
2021/06/28 22:57:14;;;;;;;11.73;11.00;;;19.50;99.90;;;;;;10398605;28;20234;-81
2021/06/28 23:02:17;;;;;;;11.50;10.70;;;19.50;99.90;;;;;;10382607;28;20280;-80
2021/06/28 23:07:19;;;;;;;11.00;10.30;;;19.50;99.90;;;;;;10399754;28;20222;-81
2021/06/28 23:12:21;;;;;;;12.03;11.23;;;19.40;99.90;;;;;;10381765;28;20206;-81
2021/06/28 23:17:25;;;;;;;11.50;10.70;;;19.40;99.90;;;;;;10386072;28;20332;-80
2021/06/28 23:22:27;;;;;;;14.03;11.27;;;19.30;99.90;;;;;;10367961;28;20225;-80
2021/06/28 23:27:32;;;;;;;12.37;11.53;;;19.40;99.90;;;;;;10382197;28;20249;-80
2021/06/28 23:32:36;;;;;;;12.20;11.40;;;19.40;99.90;;;;;;10387040;28;20325;-80
2021/06/28 23:37:38;;;;;;;11.30;10.43;;;19.30;99.90;;;;;;10401242;28;20315;-79
2021/06/28 23:42:41;;;;;;;11.03;10.30;;;19.30;99.90;;;;;;10408910;28;20222;-80
2021/06/28 23:47:44;;;;;;;10.80;9.90;;;19.30;99.90;;;;;;10417143;28;20712;-80
2021/06/28 23:52:46;;;;;;;10.80;10.10;;;19.30;99.90;;;;;;10420018;28;20250;-80
2021/06/28 23:57:48;;;;;;;10.50;9.63;;;19.30;99.90;;;;;;10420487;28;20225;-80
